Terminal Aerodrome Forecast
Issued by NWS Wilmington, NC

Home | Current Version | Previous Version | Text Only | Print | Product List | Glossary On
Versions: 1 2 3 4 5 6 7 8 9 10 11 12 13 14 15 16
000
FTUS42 KILM 282200 AAB
TAFILM
TAF AMD
KILM 282256Z 2823/2918 26010G16KT P6SM VCSH FEW020 SCT040 SCT200
     FM290200 26010KT P6SM BKN040 BKN250
     FM290800 32006KT P6SM SCT040
     FM291400 02009KT P6SM FEW040=

USA.gov is the U.S. government's official web portal to all federal, state and local government web resources and services.